createdAt,value
2023-03-06T00:04:50.482Z,8.93
2023-03-06T00:09:52.554Z,8.02
2023-03-06T00:14:54.500Z,9.57
2023-03-06T00:19:56.588Z,9.30
2023-03-06T00:24:59.542Z,8.57
2023-03-06T00:30:02.302Z,8.80
2023-03-06T00:35:04.614Z,8.90
2023-03-06T00:40:09.475Z,9.00
2023-03-06T00:45:12.589Z,9.52
2023-03-06T00:50:14.714Z,9.35
2023-03-06T00:55:17.149Z,9.27
2023-03-06T01:00:19.528Z,8.30
2023-03-06T01:05:26.773Z,7.72
2023-03-06T01:10:31.732Z,6.57
2023-03-06T01:15:35.654Z,7.68
2023-03-06T01:20:38.536Z,7.55
2023-03-06T01:25:40.805Z,7.75
2023-03-06T01:30:46.137Z,7.95
2023-03-06T01:40:50.468Z,7.15
2023-03-06T01:45:53.093Z,6.70
2023-03-06T01:50:55.183Z,8.45
2023-03-06T01:55:57.585Z,6.80
2023-03-06T02:00:59.860Z,7.53
2023-03-06T02:06:02.258Z,6.95
2023-03-06T02:11:08.623Z,7.70
2023-03-06T02:16:12.303Z,7.13
2023-03-06T02:21:33.828Z,7.68
2023-03-06T02:26:37.554Z,8.32
2023-03-06T02:31:39.986Z,9.50
2023-03-06T02:36:55.193Z,8.63
2023-03-06T02:41:58.058Z,8.98
2023-03-06T02:47:02.381Z,9.43
2023-03-06T02:52:04.785Z,8.63
2023-03-06T02:57:07.678Z,8.23
2023-03-06T03:02:10.615Z,8.27
2023-03-06T03:07:13.078Z,8.85
2023-03-06T03:12:15.926Z,8.52
2023-03-06T03:17:19.131Z,8.40
2023-03-06T03:22:22.214Z,8.43
2023-03-06T03:27:25.352Z,7.75
2023-03-06T03:32:27.902Z,7.43
2023-03-06T03:37:30.730Z,8.50
2023-03-06T03:42:36.696Z,8.45
2023-03-06T03:47:40.763Z,8.63
2023-03-06T03:52:43.338Z,7.72
2023-03-06T03:57:47.280Z,7.47
2023-03-06T04:02:49.837Z,7.93
2023-03-06T04:08:05.751Z,7.32
2023-03-06T04:13:10.214Z,7.95
2023-03-06T04:18:17.166Z,6.90
2023-03-06T04:23:21.769Z,7.28
2023-03-06T04:28:24.412Z,7.47
2023-03-06T04:33:27.058Z,6.65
2023-03-06T04:38:30.408Z,7.15
2023-03-06T04:43:32.576Z,7.18
2023-03-06T04:48:36.610Z,6.30
2023-03-06T04:53:38.964Z,6.38
2023-03-06T04:58:41.526Z,6.72
2023-03-06T05:03:43.930Z,6.85
2023-03-06T05:08:46.334Z,7.78
2023-03-06T05:13:48.697Z,7.22
2023-03-06T05:18:50.998Z,7.18
2023-03-06T05:23:53.959Z,7.28
2023-03-06T05:28:55.914Z,7.85
2023-03-06T05:33:58.894Z,7.75
2023-03-06T05:39:01.236Z,8.00
2023-03-06T05:44:06.071Z,7.25
2023-03-06T05:49:08.926Z,7.22
2023-03-06T05:54:11.331Z,6.65
2023-03-06T05:59:13.549Z,9.20
2023-03-06T06:04:16.063Z,7.75
2023-03-06T06:09:18.305Z,7.72
2023-03-06T06:14:22.055Z,7.80
2023-03-06T06:19:24.175Z,6.65
2023-03-06T06:24:26.721Z,7.82
2023-03-06T06:29:30.504Z,7.88
2023-03-06T06:34:32.610Z,7.18
2023-03-06T06:39:34.670Z,7.75
2023-03-06T06:44:37.259Z,9.23
2023-03-06T06:49:39.709Z,7.55
2023-03-06T06:54:41.809Z,6.70
2023-03-06T06:59:46.222Z,5.57
2023-03-06T07:05:02.356Z,6.75
2023-03-06T07:10:08.977Z,5.88
2023-03-06T07:15:13.544Z,5.38
2023-03-06T07:20:15.947Z,5.40
2023-03-06T07:25:17.936Z,5.05
2023-03-06T07:30:20.242Z,6.32
2023-03-06T07:35:22.860Z,5.55
2023-03-06T07:40:25.918Z,5.70
2023-03-06T07:45:27.955Z,8.57
2023-03-06T07:50:30.105Z,4.95
2023-03-06T07:55:32.006Z,3.83
2023-03-06T08:00:34.422Z,4.10
2023-03-06T08:05:36.334Z,4.43
2023-03-06T08:10:38.561Z,4.18
2023-03-06T08:15:40.660Z,4.07
2023-03-06T08:20:42.956Z,3.85
2023-03-06T08:25:44.980Z,4.53
2023-03-06T08:30:46.992Z,4.88
2023-03-06T08:35:49.258Z,3.88
2023-03-06T08:40:51.475Z,3.83
2023-03-06T08:45:56.229Z,3.70
2023-03-06T08:50:58.816Z,3.45
2023-03-06T08:56:00.718Z,3.25
2023-03-06T09:01:05.508Z,3.83
2023-03-06T09:06:07.840Z,3.63
2023-03-06T09:11:11.558Z,4.22
2023-03-06T09:16:13.747Z,3.78
2023-03-06T09:21:15.865Z,3.10
2023-03-06T09:26:18.828Z,2.53
2023-03-06T09:31:21.108Z,2.65
2023-03-06T09:36:23.580Z,3.78
2023-03-06T09:41:35.061Z,6.70
2023-03-06T09:46:47.672Z,11.88
2023-03-06T09:52:08.424Z,3.60
2023-03-06T09:57:19.794Z,2.90
2023-03-06T10:02:30.546Z,2.47
2023-03-06T10:07:54.545Z,2.50
2023-03-06T10:13:05.994Z,2.70
2023-03-06T10:18:10.814Z,2.28
2023-03-06T10:23:22.328Z,2.80
2023-03-06T10:28:35.055Z,2.70
2023-03-06T10:33:57.902Z,2.60
2023-03-06T10:39:00.268Z,2.75
2023-03-06T10:44:05.481Z,5.18
2023-03-06T10:49:32.441Z,4.75
2023-03-06T10:54:37.903Z,2.72
2023-03-06T10:59:53.730Z,2.35
2023-03-06T11:04:56.630Z,2.92
2023-03-06T11:09:58.662Z,3.42
2023-03-06T11:15:06.732Z,2.90
2023-03-06T11:20:22.986Z,2.45
2023-03-06T11:25:33.639Z,2.00
2023-03-06T11:36:16.048Z,2.05
2023-03-06T11:41:42.784Z,2.00
2023-03-06T11:46:48.971Z,1.90
2023-03-06T11:51:57.057Z,2.42
2023-03-06T11:57:31.023Z,3.00
2023-03-06T12:02:57.387Z,3.20
2023-03-06T12:08:17.650Z,3.95
2023-03-06T12:13:28.712Z,2.70
2023-03-06T12:19:04.761Z,2.00
2023-03-06T12:24:44.696Z,6.65
2023-03-06T12:30:25.236Z,3.65
2023-03-06T12:35:51.477Z,3.95
2023-03-06T12:40:59.321Z,3.20
2023-03-06T12:46:22.589Z,3.90
2023-03-06T12:51:24.798Z,2.42
2023-03-06T12:56:27.867Z,2.78
2023-03-06T13:01:52.230Z,2.45
2023-03-06T13:07:28.772Z,5.60
2023-03-06T13:13:26.043Z,5.45
2023-03-06T13:19:11.637Z,2.20
2023-03-06T13:24:27.776Z,2.15
2023-03-06T13:29:50.173Z,1.80
2023-03-06T13:34:52.440Z,1.85
2023-03-06T13:39:54.479Z,7.22
2023-03-06T13:45:16.116Z,8.98
2023-03-06T13:50:30.671Z,12.38
2023-03-06T13:55:43.258Z,1.30
2023-03-06T14:01:00.722Z,1.00
2023-03-06T14:06:43.488Z,0.80
2023-03-06T14:12:29.670Z,1.20
2023-03-06T14:17:38.014Z,1.35
2023-03-06T14:22:40.432Z,1.58
2023-03-06T14:27:53.549Z,1.00
2023-03-06T14:32:57.481Z,1.55
2023-03-06T14:38:02.104Z,0.93
2023-03-06T14:48:43.356Z,1.40
2023-03-06T14:53:48.352Z,1.05
2023-03-06T14:58:53.071Z,0.95
2023-03-06T15:03:59.001Z,0.60
2023-03-06T15:09:20.579Z,0.95
2023-03-06T15:14:30.039Z,1.13
2023-03-06T15:19:40.454Z,1.30
2023-03-06T15:24:42.419Z,0.80
2023-03-06T15:29:44.517Z,0.80
2023-03-06T15:35:27.675Z,0.90
2023-03-06T15:40:31.979Z,0.88
2023-03-06T15:45:35.175Z,0.73
2023-03-06T15:50:37.191Z,0.90
2023-03-06T15:55:40.321Z,1.00
2023-03-06T16:00:42.631Z,0.80
2023-03-06T16:05:45.139Z,0.57
2023-03-06T16:10:48.070Z,1.20
2023-03-06T16:15:50.913Z,1.27
2023-03-06T16:20:55.466Z,0.90
2023-03-06T16:25:57.465Z,2.20
2023-03-06T16:30:59.429Z,0.70
2023-03-06T16:36:02.832Z,0.90
2023-03-06T16:41:05.120Z,1.00
2023-03-06T16:46:15.750Z,1.00
2023-03-06T16:51:22.199Z,0.90
2023-03-06T16:56:25.678Z,1.10
2023-03-06T17:01:27.802Z,0.77
2023-03-06T17:06:30.395Z,0.90
2023-03-06T17:11:32.372Z,1.30
2023-03-06T17:16:34.847Z,0.90
2023-03-06T17:21:38.618Z,1.05
2023-03-06T17:26:40.636Z,0.75
2023-03-06T17:31:42.685Z,1.00
2023-03-06T17:36:44.858Z,0.95
2023-03-06T17:41:46.836Z,1.23
2023-03-06T17:46:50.033Z,1.15
2023-03-06T17:51:52.947Z,1.17
2023-03-06T17:57:01.147Z,1.02
2023-03-06T18:02:03.450Z,1.60
2023-03-06T18:07:11.290Z,1.40
2023-03-06T18:12:14.768Z,2.70
2023-03-06T18:17:16.886Z,1.92
2023-03-06T18:22:18.839Z,4.75
2023-03-06T18:27:22.002Z,1.98
2023-03-06T18:32:24.157Z,2.65
2023-03-06T18:37:26.281Z,1.77
2023-03-06T18:42:28.322Z,1.92
2023-03-06T18:47:30.493Z,1.95
2023-03-06T18:52:34.445Z,1.67
2023-03-06T18:57:36.641Z,2.13
2023-03-06T19:02:38.643Z,1.77
2023-03-06T19:07:40.697Z,2.60
2023-03-06T19:12:42.745Z,1.90
2023-03-06T19:17:45.702Z,1.10
2023-03-06T19:22:47.676Z,1.70
2023-03-06T19:27:51.738Z,1.58
2023-03-06T19:32:53.979Z,1.40
2023-03-06T19:37:56.372Z,1.90
2023-03-06T19:42:58.545Z,1.60
2023-03-06T19:48:01.176Z,1.17
2023-03-06T19:53:04.730Z,1.50
2023-03-06T19:58:08.211Z,1.42
2023-03-06T20:03:10.369Z,1.00
2023-03-06T20:08:12.386Z,1.25
2023-03-06T20:13:14.425Z,1.52
2023-03-06T20:18:16.601Z,2.13
2023-03-06T20:23:18.658Z,1.55
2023-03-06T20:28:21.789Z,1.33
2023-03-06T20:33:24.058Z,6.97
2023-03-06T20:38:26.451Z,6.47
2023-03-06T20:43:28.685Z,10.73
2023-03-06T20:48:30.864Z,11.50
2023-03-06T20:53:35.331Z,7.68
2023-03-06T20:58:37.413Z,7.55
2023-03-06T21:03:39.371Z,4.53
2023-03-06T21:08:41.820Z,2.20
2023-03-06T21:13:44.228Z,2.72
2023-03-06T21:18:46.676Z,1.98
2023-03-06T21:23:49.489Z,1.52
2023-03-06T21:28:52.872Z,2.20
2023-03-06T21:33:55.723Z,2.63
2023-03-06T21:38:58.326Z,2.30
2023-03-06T21:44:02.687Z,2.17
2023-03-06T21:49:05.181Z,2.42
2023-03-06T21:54:07.570Z,1.85
2023-03-06T21:59:10.692Z,1.43
2023-03-06T22:04:13.336Z,2.72
2023-03-06T22:09:17.385Z,1.95
2023-03-06T22:14:24.686Z,2.72
2023-03-06T22:19:28.197Z,1.60
2023-03-06T22:24:32.089Z,3.03
2023-03-06T22:29:34.455Z,4.40
2023-03-06T22:34:36.588Z,4.45
2023-03-06T22:39:38.840Z,6.20
2023-03-06T22:44:41.135Z,7.10
2023-03-06T22:49:43.250Z,2.00
2023-03-06T22:54:45.706Z,1.90
2023-03-06T22:59:47.634Z,2.58
2023-03-06T23:04:54.468Z,1.67
2023-03-06T23:09:56.664Z,1.65
2023-03-06T23:15:17.231Z,2.10
2023-03-06T23:20:42.647Z,2.05
2023-03-06T23:26:04.219Z,1.88
2023-03-06T23:31:08.501Z,1.67
2023-03-06T23:36:13.244Z,1.60
2023-03-06T23:41:18.246Z,1.50
2023-03-06T23:46:20.477Z,1.52
2023-03-06T23:51:24.447Z,1.92
2023-03-06T23:56:28.380Z,1.98
